createdAt,value
2016-12-18T00:00:11.185Z,99.99
2016-12-18T00:00:51.725Z,99.99
2016-12-18T00:01:32.227Z,99.99
2016-12-18T00:02:12.723Z,99.91
2016-12-18T00:02:53.222Z,99.99
2016-12-18T00:03:33.721Z,99.99
2016-12-18T00:04:14.197Z,99.99
2016-12-18T00:04:54.681Z,99.99
2016-12-18T00:05:35.209Z,99.99
2016-12-18T00:06:15.746Z,99.99
2016-12-18T00:06:56.245Z,99.99
2016-12-18T00:07:36.746Z,99.99
2016-12-18T00:08:17.229Z,99.99
2016-12-18T00:08:57.718Z,99.99
2016-12-18T00:09:38.264Z,99.99
2016-12-18T00:10:18.732Z,99.99
2016-12-18T00:10:59.231Z,99.99
2016-12-18T00:11:39.725Z,99.99
2016-12-18T00:12:20.198Z,99.91
2016-12-18T00:13:00.706Z,99.99
2016-12-18T00:13:41.177Z,99.99
2016-12-18T00:14:21.711Z,99.99
2016-12-18T00:15:02.198Z,99.99
2016-12-18T00:15:42.687Z,99.99
2016-12-18T00:16:23.172Z,99.99
2016-12-18T00:17:03.824Z,99.99
2016-12-18T00:17:44.215Z,99.99
2016-12-18T00:18:24.726Z,99.91
2016-12-18T00:19:05.215Z,99.99
2016-12-18T00:19:45.732Z,99.99
2016-12-18T00:20:26.227Z,99.99
2016-12-18T00:21:06.761Z,99.99
2016-12-18T00:21:47.275Z,99.99
2016-12-18T00:22:27.748Z,99.99
2016-12-18T00:23:08.234Z,99.82
2016-12-18T00:23:48.714Z,99.54
2016-12-18T00:24:29.187Z,99.63
2016-12-18T00:25:09.672Z,99.63
2016-12-18T00:25:50.182Z,99.91
2016-12-18T00:26:30.673Z,99.82
2016-12-18T00:27:11.180Z,99.73
2016-12-18T00:27:51.708Z,99.91
2016-12-18T00:28:32.164Z,99.91
2016-12-18T00:29:12.673Z,99.63
2016-12-18T00:29:53.157Z,99.91
2016-12-18T00:30:33.686Z,99.91
2016-12-18T00:31:14.139Z,99.99
2016-12-18T00:31:54.611Z,99.99
2016-12-18T00:32:35.102Z,99.99
2016-12-18T00:33:15.584Z,99.99
2016-12-18T00:33:56.079Z,99.99
2016-12-18T00:34:36.542Z,99.99
2016-12-18T00:35:17.061Z,99.99
2016-12-18T00:35:57.552Z,99.99
2016-12-18T00:36:38.033Z,99.99
2016-12-18T00:37:18.502Z,99.99
2016-12-18T00:37:58.999Z,99.99
2016-12-18T00:38:39.506Z,99.99
2016-12-18T00:39:19.992Z,99.99
2016-12-18T00:40:00.480Z,99.99
2016-12-18T00:40:40.980Z,99.82
2016-12-18T00:41:21.471Z,99.99
2016-12-18T00:42:01.992Z,99.82
2016-12-18T00:42:42.496Z,99.91
2016-12-18T00:43:22.976Z,99.99
2016-12-18T00:44:03.497Z,99.99
2016-12-18T00:44:43.984Z,99.99
2016-12-18T00:45:24.494Z,99.99
2016-12-18T00:46:04.989Z,99.99
2016-12-18T00:46:45.484Z,99.99
2016-12-18T00:47:25.981Z,99.99
2016-12-18T00:48:06.472Z,99.99
2016-12-18T00:48:46.984Z,99.99
2016-12-18T00:49:27.467Z,99.99
2016-12-18T00:50:07.957Z,99.99
2016-12-18T00:50:48.455Z,99.99
2016-12-18T00:51:28.958Z,99.99
2016-12-18T00:52:09.422Z,99.82
2016-12-18T00:52:49.914Z,99.82
2016-12-18T00:53:30.393Z,99.99
2016-12-18T00:54:10.868Z,99.99
2016-12-18T00:54:51.377Z,99.99
2016-12-18T00:55:31.874Z,99.99
2016-12-18T00:56:12.372Z,99.99
2016-12-18T00:56:52.841Z,99.99
2016-12-18T00:57:33.341Z,99.99
2016-12-18T00:58:13.823Z,99.99
2016-12-18T00:58:54.325Z,99.73
2016-12-18T00:59:34.825Z,99.82
2016-12-18T01:00:15.329Z,99.91
2016-12-18T01:00:55.854Z,99.99
2016-12-18T01:01:36.388Z,99.91
2016-12-18T01:02:16.857Z,99.26
2016-12-18T01:02:57.347Z,99.58
2016-12-18T01:03:37.856Z,99.82
2016-12-18T01:04:18.335Z,99.63
2016-12-18T01:04:58.830Z,99.68
2016-12-18T01:05:39.345Z,99.54
2016-12-18T01:06:19.841Z,99.54
2016-12-18T01:07:00.334Z,99.73
2016-12-18T01:07:40.809Z,99.58
2016-12-18T01:08:21.296Z,99.21
2016-12-18T01:09:01.806Z,99.21
2016-12-18T01:09:42.299Z,99.3
2016-12-18T01:10:22.791Z,99.02
2016-12-18T01:11:03.269Z,99.58
2016-12-18T01:11:43.799Z,99.21
2016-12-18T01:12:24.288Z,99.02
2016-12-18T01:13:04.816Z,99.3
2016-12-18T01:13:45.299Z,99.21
2016-12-18T01:14:25.783Z,99.21
2016-12-18T01:15:06.283Z,99.3
2016-12-18T01:15:46.756Z,99.58
2016-12-18T01:16:27.253Z,99.68
2016-12-18T01:17:07.768Z,99.58
2016-12-18T01:17:48.215Z,99.02
2016-12-18T01:18:28.740Z,99.21
2016-12-18T01:19:09.233Z,99.02
2016-12-18T01:19:49.719Z,99.77
2016-12-18T01:20:30.218Z,99.02
2016-12-18T01:21:10.713Z,99.49
2016-12-18T01:21:51.203Z,99.58
2016-12-18T01:22:31.701Z,99.68
2016-12-18T01:23:12.224Z,99.11
2016-12-18T01:23:52.732Z,99.49
2016-12-18T01:24:33.229Z,99.58
2016-12-18T01:25:13.709Z,99.58
2016-12-18T01:25:54.217Z,99.58
2016-12-18T01:26:34.698Z,99.68
2016-12-18T01:27:15.202Z,99.99
2016-12-18T01:27:55.710Z,99.99
2016-12-18T01:28:36.197Z,99.87
2016-12-18T01:29:16.692Z,99.87
2016-12-18T01:29:57.183Z,99.87
2016-12-18T01:30:37.701Z,99.99
2016-12-18T01:31:18.204Z,99.97
2016-12-18T01:31:58.673Z,99.87
2016-12-18T01:32:39.153Z,99.99
2016-12-18T01:33:19.664Z,99.97
2016-12-18T01:34:00.175Z,99.99
2016-12-18T01:34:40.666Z,99.77
2016-12-18T01:35:21.143Z,99.97
2016-12-18T01:36:01.616Z,99.77
2016-12-18T01:36:42.087Z,99.99
2016-12-18T01:37:22.569Z,99.99
2016-12-18T01:38:03.081Z,99.99
2016-12-18T01:38:43.562Z,99.99
2016-12-18T01:39:24.107Z,99.99
2016-12-18T01:40:04.599Z,99.97
2016-12-18T01:40:45.093Z,99.97
2016-12-18T01:41:25.588Z,99.87
2016-12-18T01:42:06.081Z,99.58
2016-12-18T01:42:46.552Z,99.77
2016-12-18T01:43:27.053Z,99.97
2016-12-18T01:44:07.537Z,99.97
2016-12-18T01:44:48.085Z,99.97
2016-12-18T01:45:28.592Z,99.97
2016-12-18T01:46:09.068Z,99.58
2016-12-18T01:46:49.557Z,99.58
2016-12-18T01:47:30.051Z,99.02
2016-12-18T01:48:10.538Z,99.21
2016-12-18T01:48:51.037Z,99.58
2016-12-18T01:49:31.527Z,99.3
2016-12-18T01:50:12.075Z,99.58
2016-12-18T01:50:52.593Z,99.21
2016-12-18T01:51:33.075Z,99.4
2016-12-18T01:53:46.393Z,99.02
2016-12-18T01:54:26.776Z,99.21
2016-12-18T01:55:07.248Z,99.4
2016-12-18T01:55:47.747Z,99.4
2016-12-18T01:56:28.244Z,99.4
2016-12-18T01:57:08.732Z,99.58
2016-12-18T01:57:49.221Z,99.11
2016-12-18T01:58:29.704Z,99.02
2016-12-18T01:59:10.200Z,98.83
2016-12-18T01:59:50.698Z,99.02
2016-12-18T02:00:31.236Z,99.3
2016-12-18T02:01:11.700Z,98.83
2016-12-18T02:01:52.257Z,99.02
2016-12-18T02:02:32.742Z,99.11
2016-12-18T02:03:13.251Z,99.21
2016-12-18T02:03:53.733Z,98.73
2016-12-18T02:04:34.232Z,99.02
2016-12-18T02:05:14.741Z,98.73
2016-12-18T02:05:55.246Z,98.73
2016-12-18T02:06:35.755Z,99.02
2016-12-18T02:07:16.236Z,98.26
2016-12-18T02:07:56.747Z,98.35
2016-12-18T02:08:37.263Z,98.35
2016-12-18T02:09:17.765Z,98.26
2016-12-18T02:09:58.251Z,98.45
2016-12-18T02:10:38.757Z,98.35
2016-12-18T02:11:19.256Z,98.73
2016-12-18T02:11:59.740Z,98.16
2016-12-18T02:12:40.233Z,98.54
2016-12-18T02:13:20.726Z,98.73
2016-12-18T02:14:01.227Z,98.54
2016-12-18T02:14:41.689Z,98.26
2016-12-18T02:15:22.195Z,98.35
2016-12-18T02:16:02.693Z,98.45
2016-12-18T02:16:43.210Z,98.35
2016-12-18T02:17:23.703Z,98.35
2016-12-18T02:18:04.191Z,98.35
2016-12-18T02:18:44.704Z,98.16
2016-12-18T02:19:25.160Z,98.35
2016-12-18T02:20:05.651Z,98.73
2016-12-18T02:20:46.148Z,98.73
2016-12-18T02:21:26.618Z,98.64
2016-12-18T02:22:07.119Z,98.35
2016-12-18T02:22:47.590Z,98.54
2016-12-18T02:23:28.074Z,98.54
2016-12-18T02:24:08.570Z,98.54
2016-12-18T02:24:49.038Z,98.92
2016-12-18T02:25:29.534Z,99.02
2016-12-18T02:26:10.043Z,99.3
2016-12-18T02:26:50.516Z,99.49
2016-12-18T02:27:30.996Z,99.21
2016-12-18T02:28:11.489Z,99.4
2016-12-18T02:28:51.975Z,99.3
2016-12-18T02:29:32.499Z,99.21
2016-12-18T02:30:12.943Z,99.77
2016-12-18T02:30:53.425Z,99.58
2016-12-18T02:31:33.940Z,99.21
2016-12-18T02:32:14.439Z,99.77
2016-12-18T02:32:54.933Z,99.97
2016-12-18T02:33:35.426Z,99.97
2016-12-18T02:34:15.935Z,99.97
2016-12-18T02:34:56.403Z,99.97
2016-12-18T02:35:36.914Z,99.99
2016-12-18T02:36:17.395Z,99.97
2016-12-18T02:36:57.885Z,99.99
2016-12-18T02:37:38.355Z,99.99
2016-12-18T02:38:18.849Z,99.99
2016-12-18T02:38:59.346Z,99.99
2016-12-18T02:39:39.851Z,99.99
2016-12-18T02:40:20.348Z,99.97
2016-12-18T02:41:00.828Z,99.99
2016-12-18T02:41:41.321Z,99.99
2016-12-18T02:42:21.809Z,99.99
2016-12-18T02:43:02.325Z,99.87
2016-12-18T02:43:42.819Z,99.99
2016-12-18T02:44:23.306Z,99.99
2016-12-18T02:45:03.805Z,99.99
2016-12-18T02:45:44.275Z,99.99
2016-12-18T02:46:24.774Z,99.99
2016-12-18T02:47:05.272Z,99.99
2016-12-18T02:47:45.791Z,99.99
2016-12-18T02:48:26.244Z,99.99
2016-12-18T02:49:06.707Z,99.97
2016-12-18T02:49:47.225Z,99.99
2016-12-18T02:50:27.719Z,99.97
2016-12-18T02:51:08.205Z,99.99
2016-12-18T02:51:48.691Z,99.99
2016-12-18T02:52:29.182Z,99.99
2016-12-18T02:53:09.670Z,99.99
2016-12-18T02:53:50.173Z,99.99
2016-12-18T02:54:30.663Z,99.99
2016-12-18T02:55:11.138Z,99.99
2016-12-18T02:55:51.625Z,99.99
2016-12-18T02:56:32.130Z,99.99
2016-12-18T02:57:12.589Z,99.99
2016-12-18T02:57:53.083Z,99.99
2016-12-18T02:58:33.569Z,99.99
2016-12-18T02:59:14.056Z,99.99
2016-12-18T02:59:54.546Z,99.99
2016-12-18T03:00:35.025Z,99.99
2016-12-18T03:01:15.532Z,99.99
2016-12-18T03:01:56.010Z,99.99
2016-12-18T03:02:36.515Z,99.99
2016-12-18T03:03:16.975Z,99.99
2016-12-18T03:03:57.482Z,99.99
2016-12-18T03:04:37.938Z,99.99
2016-12-18T03:05:18.413Z,99.99
2016-12-18T03:05:58.901Z,99.99
2016-12-18T03:06:39.382Z,99.99
2016-12-18T03:07:19.866Z,99.99
2016-12-18T03:08:00.333Z,99.99
2016-12-18T03:08:40.830Z,99.99
2016-12-18T03:09:21.300Z,99.99
2016-12-18T03:10:01.833Z,99.99
2016-12-18T03:10:42.309Z,99.99
2016-12-18T03:11:22.778Z,99.99
2016-12-18T03:12:03.276Z,99.99
2016-12-18T03:12:43.759Z,99.99
2016-12-18T03:13:24.290Z,99.99
2016-12-18T03:14:04.794Z,99.99
2016-12-18T03:14:45.270Z,99.99
2016-12-18T03:15:25.758Z,99.99
2016-12-18T03:16:06.244Z,99.99
2016-12-18T03:18:20.378Z,99.99
2016-12-18T03:19:00.747Z,99.99
2016-12-18T03:19:41.230Z,99.99
2016-12-18T03:20:21.718Z,99.99
2016-12-18T03:21:02.246Z,99.99
2016-12-18T03:21:42.725Z,99.99
2016-12-18T03:22:23.192Z,99.99
2016-12-18T03:23:03.692Z,99.99
2016-12-18T03:23:44.203Z,99.99
2016-12-18T03:24:24.716Z,99.99
2016-12-18T03:25:05.170Z,99.99
2016-12-18T03:25:45.679Z,99.99
2016-12-18T03:26:26.116Z,99.99
2016-12-18T03:27:06.614Z,99.99
2016-12-18T03:27:47.088Z,99.99
2016-12-18T03:28:27.575Z,99.99
2016-12-18T03:29:08.045Z,99.99
2016-12-18T03:29:48.557Z,99.99
2016-12-18T03:30:29.047Z,99.99
2016-12-18T03:31:09.520Z,99.99
2016-12-18T03:31:49.998Z,99.99
2016-12-18T03:32:30.532Z,99.99
2016-12-18T03:33:10.992Z,99.99
2016-12-18T03:33:51.472Z,99.99
2016-12-18T03:34:31.980Z,99.99
2016-12-18T03:35:12.465Z,99.99
2016-12-18T03:35:52.932Z,99.99
2016-12-18T03:36:33.439Z,99.99
2016-12-18T03:37:13.887Z,99.99
2016-12-18T03:37:54.385Z,99.99
2016-12-18T03:38:34.864Z,99.99
2016-12-18T03:39:15.341Z,99.99
2016-12-18T03:39:55.841Z,99.99
2016-12-18T03:40:36.333Z,99.99
2016-12-18T03:41:16.825Z,99.99
2016-12-18T03:41:57.335Z,99.99
2016-12-18T03:42:37.820Z,99.99
2016-12-18T03:43:18.326Z,99.99
2016-12-18T03:43:58.811Z,99.99
2016-12-18T03:44:39.331Z,99.99
2016-12-18T03:45:19.791Z,99.99
2016-12-18T03:46:00.286Z,99.99
2016-12-18T03:46:40.781Z,99.99
2016-12-18T03:47:21.275Z,99.99
2016-12-18T03:48:01.747Z,99.99
2016-12-18T03:48:42.252Z,99.99
2016-12-18T03:49:22.744Z,99.99
2016-12-18T03:50:03.230Z,99.99
2016-12-18T03:50:43.715Z,99.99
2016-12-18T03:51:24.225Z,99.99
2016-12-18T03:52:04.713Z,99.99
2016-12-18T03:52:45.224Z,99.99
2016-12-18T03:53:25.701Z,99.99
2016-12-18T03:54:06.215Z,99.99
2016-12-18T03:54:46.683Z,99.99
2016-12-18T03:55:27.190Z,99.99
2016-12-18T03:56:07.685Z,99.99
2016-12-18T03:56:48.176Z,99.99
2016-12-18T03:57:28.660Z,99.99
2016-12-18T03:58:09.150Z,99.99
2016-12-18T03:58:49.612Z,99.99
2016-12-18T03:59:30.132Z,99.99
2016-12-18T04:00:10.606Z,99.99
2016-12-18T04:00:51.101Z,99.99
2016-12-18T04:01:31.600Z,99.99
2016-12-18T04:02:12.112Z,99.99
2016-12-18T04:02:52.617Z,99.99
2016-12-18T04:03:33.114Z,99.99
2016-12-18T04:04:13.608Z,99.99
2016-12-18T04:04:54.092Z,99.99
2016-12-18T04:05:34.590Z,99.99
2016-12-18T04:06:15.090Z,99.99
2016-12-18T04:06:55.559Z,99.99
2016-12-18T04:07:36.079Z,99.99
2016-12-18T04:08:16.555Z,99.99
2016-12-18T04:08:57.037Z,99.99
2016-12-18T04:09:37.548Z,99.99
2016-12-18T04:10:18.043Z,99.99
2016-12-18T04:10:58.540Z,99.99
2016-12-18T04:11:39.027Z,99.99
2016-12-18T04:12:19.520Z,99.99
2016-12-18T04:13:00.006Z,99.99
2016-12-18T04:13:40.499Z,99.99
2016-12-18T04:14:20.984Z,99.99
2016-12-18T04:15:01.458Z,99.99
2016-12-18T04:15:41.932Z,99.99
2016-12-18T04:16:22.431Z,99.99
2016-12-18T04:17:02.919Z,99.99
2016-12-18T04:17:43.402Z,99.99
2016-12-18T04:18:23.891Z,99.99
2016-12-18T04:19:04.383Z,99.99
2016-12-18T04:19:44.913Z,99.99
2016-12-18T04:20:25.388Z,99.99
2016-12-18T04:21:05.868Z,99.99
2016-12-18T04:21:46.361Z,99.99
2016-12-18T04:22:26.845Z,99.99
2016-12-18T04:23:07.325Z,99.99
2016-12-18T04:23:47.826Z,99.99
2016-12-18T04:24:28.330Z,99.99
2016-12-18T04:25:08.792Z,99.99
2016-12-18T04:25:49.283Z,99.99
2016-12-18T04:26:29.774Z,99.99
2016-12-18T04:27:10.267Z,99.99
2016-12-18T04:27:50.708Z,99.99
2016-12-18T04:28:31.187Z,99.99
2016-12-18T04:29:11.715Z,99.99
2016-12-18T04:29:52.202Z,99.99
2016-12-18T04:30:32.689Z,99.99
2016-12-18T04:31:13.190Z,99.99
2016-12-18T04:31:53.703Z,99.99
2016-12-18T04:32:34.191Z,99.99
2016-12-18T04:33:14.694Z,99.99
2016-12-18T04:33:55.209Z,99.99
2016-12-18T04:34:35.702Z,99.99
2016-12-18T04:35:16.190Z,99.99
2016-12-18T04:35:56.689Z,99.99
2016-12-18T04:36:37.185Z,99.99
2016-12-18T04:37:17.687Z,99.99
2016-12-18T04:37:58.178Z,99.99
2016-12-18T04:38:38.655Z,99.99
2016-12-18T04:39:19.146Z,99.99
2016-12-18T04:39:59.637Z,99.99
2016-12-18T04:40:40.147Z,99.99
2016-12-18T04:41:20.632Z,99.99
2016-12-18T04:42:01.120Z,99.99
2016-12-18T04:42:41.634Z,99.99
2016-12-18T04:43:22.112Z,99.99
2016-12-18T04:44:02.596Z,99.99
2016-12-18T04:44:43.067Z,99.99
2016-12-18T04:45:23.562Z,99.99
2016-12-18T04:46:04.051Z,99.99
2016-12-18T04:46:44.535Z,99.99
2016-12-18T04:47:25.033Z,99.99
2016-12-18T04:48:05.508Z,99.99
2016-12-18T04:48:45.988Z,99.99
2016-12-18T04:49:26.477Z,99.99
2016-12-18T04:50:06.969Z,99.99
2016-12-18T04:50:47.427Z,99.99
2016-12-18T04:51:27.929Z,99.99
2016-12-18T04:52:08.403Z,99.99
2016-12-18T04:52:48.894Z,99.99
2016-12-18T04:53:29.385Z,99.99
2016-12-18T04:54:09.865Z,99.99
2016-12-18T04:54:50.354Z,99.99
2016-12-18T04:55:30.831Z,99.99
2016-12-18T04:56:11.308Z,99.99
2016-12-18T04:56:51.809Z,99.99
2016-12-18T04:57:32.351Z,99.99
2016-12-18T04:58:12.866Z,99.99
2016-12-18T04:58:53.349Z,99.99
2016-12-18T04:59:33.838Z,99.99
2016-12-18T05:00:14.314Z,99.99
2016-12-18T05:00:54.810Z,99.99
2016-12-18T05:01:35.297Z,99.99
2016-12-18T05:02:15.802Z,99.99
2016-12-18T05:02:56.302Z,99.99
2016-12-18T05:03:36.781Z,99.99
2016-12-18T05:04:17.286Z,99.99
2016-12-18T05:04:57.752Z,99.99
2016-12-18T05:05:38.257Z,99.99
2016-12-18T05:06:18.762Z,99.99
2016-12-18T05:06:59.223Z,99.99
2016-12-18T05:07:39.729Z,99.99
2016-12-18T05:08:20.217Z,99.99
2016-12-18T05:09:00.715Z,99.99
2016-12-18T05:09:41.205Z,99.99
2016-12-18T05:10:21.713Z,99.99
2016-12-18T05:11:02.200Z,99.99
2016-12-18T05:11:42.678Z,99.99
2016-12-18T05:12:23.150Z,99.99
2016-12-18T05:13:03.639Z,99.99
2016-12-18T05:13:44.126Z,99.99
2016-12-18T05:14:24.602Z,99.99
2016-12-18T05:15:05.122Z,99.99
2016-12-18T05:15:45.636Z,99.99
2016-12-18T05:16:26.119Z,99.99
2016-12-18T05:17:06.577Z,99.99
2016-12-18T05:17:47.062Z,99.99
2016-12-18T05:18:27.566Z,99.99
2016-12-18T05:19:08.035Z,99.99
2016-12-18T05:19:48.520Z,99.99
2016-12-18T05:20:28.994Z,99.99
2016-12-18T05:21:09.495Z,99.99
2016-12-18T05:21:49.997Z,99.99
2016-12-18T05:22:30.470Z,99.99
2016-12-18T05:23:10.950Z,99.99
2016-12-18T05:23:51.424Z,99.99
2016-12-18T05:24:31.907Z,99.99
2016-12-18T05:25:12.401Z,99.99
2016-12-18T05:25:52.899Z,99.99
2016-12-18T05:26:33.386Z,99.99
2016-12-18T05:27:13.875Z,99.99
2016-12-18T05:27:54.381Z,99.99
2016-12-18T05:28:34.880Z,99.99
2016-12-18T05:29:15.400Z,99.99
2016-12-18T05:29:55.888Z,99.99
2016-12-18T05:30:36.386Z,99.99
2016-12-18T05:31:16.875Z,99.99
2016-12-18T05:31:57.350Z,99.99
2016-12-18T05:32:37.837Z,99.99
2016-12-18T05:33:18.331Z,99.99
2016-12-18T05:33:58.832Z,99.99
2016-12-18T05:34:39.289Z,99.99
2016-12-18T05:35:19.755Z,99.99
2016-12-18T05:36:00.260Z,99.99
2016-12-18T05:36:40.731Z,99.99
2016-12-18T05:37:21.232Z,99.99
2016-12-18T05:38:01.712Z,99.99
2016-12-18T05:38:42.204Z,99.99
2016-12-18T05:39:22.700Z,99.99
2016-12-18T05:40:03.192Z,99.99
2016-12-18T05:40:43.692Z,99.99
2016-12-18T05:41:24.170Z,99.99
2016-12-18T05:42:04.648Z,99.99
2016-12-18T05:42:45.139Z,99.99
2016-12-18T05:43:25.620Z,99.99
2016-12-18T05:44:06.085Z,99.99
2016-12-18T05:44:46.572Z,99.99
2016-12-18T05:45:27.068Z,99.99
2016-12-18T05:46:07.572Z,99.99
2016-12-18T05:46:48.077Z,99.99
2016-12-18T05:47:28.569Z,99.99
2016-12-18T05:48:09.068Z,99.99
2016-12-18T05:48:49.554Z,99.99
2016-12-18T05:49:30.056Z,99.99
2016-12-18T05:50:10.562Z,99.99
2016-12-18T05:50:51.041Z,99.99
2016-12-18T05:51:31.530Z,99.99
2016-12-18T05:52:12.030Z,99.99
2016-12-18T05:52:52.557Z,99.99
2016-12-18T05:53:33.054Z,99.99
2016-12-18T05:54:13.530Z,99.99
2016-12-18T05:54:54.011Z,99.99
2016-12-18T05:55:34.522Z,99.99
2016-12-18T05:56:15.006Z,99.99
2016-12-18T05:56:55.525Z,99.99
2016-12-18T05:57:36.025Z,99.99
2016-12-18T05:58:16.519Z,99.99
2016-12-18T05:58:57.022Z,99.99
2016-12-18T05:59:37.535Z,99.99
2016-12-18T06:00:18.032Z,99.99
2016-12-18T06:00:58.530Z,99.99
2016-12-18T06:01:39.025Z,99.99
2016-12-18T06:02:19.515Z,99.99
2016-12-18T06:03:00.016Z,99.99
2016-12-18T06:03:40.509Z,99.99
2016-12-18T06:04:20.999Z,99.99
2016-12-18T06:05:01.498Z,99.99
2016-12-18T06:05:41.982Z,99.99
2016-12-18T06:06:22.474Z,99.99
2016-12-18T06:07:02.983Z,99.99
2016-12-18T06:07:43.477Z,99.99
2016-12-18T06:08:23.953Z,99.99
2016-12-18T06:09:04.437Z,99.99
2016-12-18T06:09:44.935Z,99.99
2016-12-18T06:10:25.418Z,99.99
2016-12-18T06:11:05.924Z,99.99
2016-12-18T06:11:46.404Z,99.99
2016-12-18T06:12:26.911Z,99.99
2016-12-18T06:13:07.427Z,99.99
2016-12-18T06:13:47.902Z,99.99
2016-12-18T06:14:28.418Z,99.99
2016-12-18T06:15:08.924Z,99.99
2016-12-18T06:15:49.426Z,99.99
2016-12-18T06:16:29.888Z,99.99
2016-12-18T06:17:10.354Z,99.99
2016-12-18T06:17:50.867Z,99.99
2016-12-18T06:18:31.367Z,99.99
2016-12-18T06:19:11.843Z,99.99
2016-12-18T06:19:52.320Z,99.99
2016-12-18T06:20:32.808Z,99.99
2016-12-18T06:21:13.317Z,99.99
2016-12-18T06:21:53.820Z,99.99
2016-12-18T06:22:34.300Z,99.99
2016-12-18T06:23:14.808Z,99.99
2016-12-18T06:23:55.277Z,99.99
2016-12-18T06:24:35.751Z,99.99
2016-12-18T06:25:16.247Z,99.99
2016-12-18T06:25:56.706Z,99.99
2016-12-18T06:26:37.259Z,99.99
2016-12-18T06:27:17.709Z,99.99
2016-12-18T06:27:58.206Z,99.99
2016-12-18T06:28:38.656Z,99.99
2016-12-18T06:29:19.128Z,99.99
2016-12-18T06:29:59.654Z,99.99
2016-12-18T06:30:40.110Z,99.99
2016-12-18T06:31:20.574Z,99.99
2016-12-18T06:32:01.058Z,99.99
2016-12-18T06:32:41.545Z,99.99
2016-12-18T06:33:22.034Z,99.99
2016-12-18T06:35:21.163Z,99.99
2016-12-18T06:36:01.639Z,99.99
2016-12-18T06:36:42.116Z,99.99
2016-12-18T06:37:22.610Z,99.99
2016-12-18T06:38:03.088Z,99.99
2016-12-18T06:38:43.584Z,99.99
2016-12-18T06:39:24.087Z,99.99
2016-12-18T06:40:04.562Z,99.99
2016-12-18T06:40:45.068Z,99.99
2016-12-18T06:41:25.572Z,99.99
2016-12-18T06:42:06.079Z,99.99
2016-12-18T06:42:46.530Z,99.99
2016-12-18T06:43:27.001Z,99.99
2016-12-18T06:44:07.480Z,99.99
2016-12-18T06:44:47.989Z,99.99
2016-12-18T06:45:28.495Z,99.99
2016-12-18T06:46:09.019Z,99.99
2016-12-18T06:46:49.523Z,99.99
2016-12-18T06:47:29.967Z,99.99
2016-12-18T06:48:10.436Z,99.99
2016-12-18T06:48:50.927Z,99.99
2016-12-18T06:49:31.393Z,99.99
2016-12-18T06:50:11.833Z,99.99
2016-12-18T06:50:52.360Z,99.99
2016-12-18T06:51:32.818Z,99.99
2016-12-18T06:52:13.334Z,99.99
2016-12-18T06:52:53.805Z,99.99
2016-12-18T06:53:34.287Z,99.99
2016-12-18T06:54:14.725Z,99.99
2016-12-18T06:54:55.222Z,99.99
2016-12-18T06:55:35.727Z,99.99
2016-12-18T06:56:16.190Z,99.99
2016-12-18T06:56:56.675Z,99.99
2016-12-18T06:57:37.151Z,99.99
2016-12-18T06:58:17.673Z,99.99
2016-12-18T06:58:58.162Z,99.99
2016-12-18T06:59:38.665Z,99.99
2016-12-18T07:00:19.127Z,99.99
2016-12-18T07:00:59.616Z,99.99
2016-12-18T07:01:40.106Z,99.99
2016-12-18T07:02:20.603Z,99.99
2016-12-18T07:03:01.112Z,99.99
2016-12-18T07:03:41.595Z,99.99
2016-12-18T07:04:22.056Z,99.99
2016-12-18T07:05:02.556Z,99.99
2016-12-18T07:05:43.049Z,99.99
2016-12-18T07:06:23.535Z,99.99
2016-12-18T07:07:04.039Z,99.99
2016-12-18T07:07:44.520Z,99.99
2016-12-18T07:08:25.006Z,99.99
2016-12-18T07:09:05.508Z,99.99
2016-12-18T07:09:45.988Z,99.99
2016-12-18T07:10:26.484Z,99.99
2016-12-18T07:11:06.981Z,99.99
2016-12-18T07:11:47.520Z,99.99
2016-12-18T07:12:28.005Z,99.99
2016-12-18T07:13:08.496Z,99.99
2016-12-18T07:13:49.000Z,99.99
2016-12-18T07:14:29.498Z,99.99
2016-12-18T07:15:09.990Z,99.99
2016-12-18T07:15:50.457Z,99.99
2016-12-18T07:16:30.960Z,99.99
2016-12-18T07:17:11.446Z,99.99
2016-12-18T07:17:51.943Z,99.99
2016-12-18T07:18:32.437Z,99.99
2016-12-18T07:19:12.909Z,99.99
2016-12-18T07:19:53.416Z,99.99
2016-12-18T07:20:33.874Z,99.99
2016-12-18T07:21:14.351Z,99.99
2016-12-18T07:21:54.856Z,99.99
2016-12-18T07:22:35.334Z,99.99
2016-12-18T07:23:15.830Z,99.99
2016-12-18T07:23:56.327Z,99.99
2016-12-18T07:24:36.815Z,99.99
2016-12-18T07:25:17.293Z,99.99
2016-12-18T07:25:57.775Z,99.99
2016-12-18T07:26:38.273Z,99.99
2016-12-18T07:27:18.775Z,99.99
2016-12-18T07:27:59.223Z,99.99
2016-12-18T07:28:39.725Z,99.99
2016-12-18T07:29:20.220Z,99.99
2016-12-18T07:30:00.736Z,99.99
2016-12-18T07:30:41.247Z,99.99
2016-12-18T07:31:21.733Z,99.99
2016-12-18T07:32:02.216Z,99.99
2016-12-18T07:32:42.735Z,99.99
2016-12-18T07:33:23.225Z,99.99
2016-12-18T07:34:03.739Z,99.99
2016-12-18T07:34:44.214Z,99.99
2016-12-18T07:35:24.688Z,99.99
2016-12-18T07:36:05.232Z,99.99
2016-12-18T07:36:45.693Z,99.99
2016-12-18T07:37:26.196Z,99.99
2016-12-18T07:38:06.689Z,99.99
2016-12-18T07:38:47.188Z,99.99
2016-12-18T07:39:27.679Z,99.99
2016-12-18T07:40:08.159Z,99.99
2016-12-18T07:40:48.631Z,99.99
2016-12-18T07:41:29.124Z,99.99
2016-12-18T07:42:09.602Z,99.99
2016-12-18T07:42:50.068Z,99.99
2016-12-18T07:43:30.578Z,99.99
2016-12-18T07:44:11.076Z,99.99
2016-12-18T07:44:51.559Z,99.99
2016-12-18T07:45:32.052Z,99.99
2016-12-18T07:46:12.525Z,99.99
2016-12-18T07:46:52.996Z,99.99
2016-12-18T07:47:33.474Z,99.99
2016-12-18T07:48:13.950Z,99.99
2016-12-18T07:48:54.424Z,99.99
2016-12-18T07:49:34.899Z,99.99
2016-12-18T07:50:15.400Z,99.99
2016-12-18T07:50:55.887Z,99.99
2016-12-18T07:51:36.361Z,99.99
2016-12-18T07:52:16.827Z,99.99
2016-12-18T07:52:57.319Z,99.99
2016-12-18T07:53:37.823Z,99.99
2016-12-18T07:54:18.347Z,99.99
2016-12-18T07:54:58.825Z,99.99
2016-12-18T07:55:39.303Z,99.99
2016-12-18T07:56:19.780Z,99.99
2016-12-18T07:57:00.286Z,99.99
2016-12-18T07:57:40.805Z,99.99
2016-12-18T07:58:21.287Z,99.99
2016-12-18T07:59:01.758Z,99.99
2016-12-18T07:59:42.274Z,99.99
2016-12-18T08:00:22.795Z,99.99
2016-12-18T08:01:03.282Z,99.99
2016-12-18T08:01:43.794Z,99.99
2016-12-18T08:02:24.298Z,99.99
2016-12-18T08:03:04.787Z,99.99
2016-12-18T08:03:45.280Z,99.99
2016-12-18T08:04:25.762Z,99.99
2016-12-18T08:05:06.248Z,99.99
2016-12-18T08:05:46.742Z,99.99
2016-12-18T08:06:27.231Z,99.99
2016-12-18T08:07:07.727Z,99.99
2016-12-18T08:07:48.182Z,99.99
2016-12-18T08:08:28.686Z,99.99
2016-12-18T08:09:09.149Z,99.99
2016-12-18T08:09:49.643Z,99.99
2016-12-18T08:10:30.098Z,99.99
2016-12-18T08:11:10.600Z,99.99
2016-12-18T08:11:51.099Z,99.99
2016-12-18T08:12:31.604Z,99.99
2016-12-18T08:13:12.093Z,99.99
2016-12-18T08:13:52.571Z,99.99
2016-12-18T08:15:45.741Z,99.99
2016-12-18T08:16:26.273Z,99.99
2016-12-18T08:17:06.662Z,99.99
2016-12-18T08:17:47.114Z,99.99
2016-12-18T08:18:27.632Z,99.99
2016-12-18T08:19:08.145Z,99.99
2016-12-18T08:19:48.639Z,99.99
2016-12-18T08:20:29.129Z,99.99
2016-12-18T08:21:09.615Z,99.99
2016-12-18T08:21:50.092Z,99.99
2016-12-18T08:22:30.560Z,99.99
2016-12-18T08:23:11.069Z,99.99
2016-12-18T08:23:51.534Z,99.99
2016-12-18T08:24:31.993Z,99.99
2016-12-18T08:25:12.476Z,99.99
2016-12-18T08:25:52.944Z,99.99
2016-12-18T08:26:33.428Z,99.99
2016-12-18T08:27:13.888Z,99.99
2016-12-18T08:27:54.383Z,99.99
2016-12-18T08:28:34.871Z,99.99
2016-12-18T08:29:15.365Z,99.99
2016-12-18T08:29:55.880Z,99.99
2016-12-18T08:30:36.399Z,99.99
2016-12-18T08:31:16.859Z,99.99
2016-12-18T08:31:57.364Z,99.99
2016-12-18T08:32:37.881Z,99.99
2016-12-18T08:33:18.375Z,99.99
2016-12-18T08:33:58.868Z,99.99
2016-12-18T08:34:39.399Z,99.99
2016-12-18T08:35:19.891Z,99.99
2016-12-18T08:36:00.407Z,99.99
2016-12-18T08:36:40.872Z,99.99
2016-12-18T08:37:21.350Z,99.99
2016-12-18T08:38:01.857Z,99.99
2016-12-18T08:38:42.343Z,99.99
2016-12-18T08:39:22.833Z,99.99
2016-12-18T08:40:03.320Z,99.99
2016-12-18T08:40:43.800Z,99.99
2016-12-18T08:41:24.310Z,99.99
2016-12-18T08:42:04.790Z,99.99
2016-12-18T08:42:45.272Z,99.99
2016-12-18T08:43:25.736Z,99.99
2016-12-18T08:44:06.217Z,99.99
2016-12-18T08:44:46.700Z,99.99
2016-12-18T08:45:27.184Z,99.99
2016-12-18T08:46:07.650Z,99.99
2016-12-18T08:46:48.161Z,99.99
2016-12-18T08:47:28.643Z,99.99